Time;durP1;ratioP1;P1;durP2;ratioP2;P2;SDS_P1;SDS_P2;PMS_P1;PMS_P2;Temp;Humidity;BMP_temperature;BMP_pressure;BME280_temperature;BME280_humidity;BME280_pressure;Samples;Min_cycle;Max_cycle;Signal;HPM_P1;HPM_P2
2021/06/30 00:00:54;;;;;;;6.70;5.95;;;;;;;;;;5030361;28;20170;-72
2021/06/30 00:03:19;;;;;;;7.05;5.40;;;;;;;;;;5023744;28;20193;-72
2021/06/30 00:05:44;;;;;;;7.55;5.70;;;;;;;;;;5029647;28;20179;-72
2021/06/30 00:08:10;;;;;;;7.25;5.53;;;;;;;;;;5021800;28;20212;-72
2021/06/30 00:10:35;;;;;;;6.00;5.07;;;;;;;;;;5027495;28;20175;-72
2021/06/30 00:13:00;;;;;;;5.72;4.43;;;;;;;;;;5054564;28;20178;-72
2021/06/30 00:15:27;;;;;;;5.80;4.70;;;;;;;;;;5047919;28;20214;-72
2021/06/30 00:17:52;;;;;;;8.70;5.30;;;;;;;;;;5050772;28;20177;-72
2021/06/30 00:20:17;;;;;;;10.13;4.88;;;;;;;;;;5050560;28;20182;-72
2021/06/30 00:22:42;;;;;;;5.90;4.15;;;;;;;;;;5055026;28;20189;-72
2021/06/30 00:25:08;;;;;;;6.97;4.75;;;;;;;;;;5057401;28;20219;-72
2021/06/30 00:27:34;;;;;;;9.32;5.40;;;;;;;;;;5038114;28;20202;-72
2021/06/30 00:29:59;;;;;;;5.93;5.05;;;;;;;;;;5029445;28;20209;-72
2021/06/30 00:32:24;;;;;;;5.13;3.85;;;;;;;;;;5027446;28;20591;-72
2021/06/30 00:34:49;;;;;;;6.72;4.50;;;;;;;;;;5033399;28;20197;-72
2021/06/30 00:37:15;;;;;;;4.45;3.58;;;;;;;;;;5023369;28;20266;-72
2021/06/30 00:39:40;;;;;;;7.03;4.03;;;;;;;;;;5027845;28;20257;-72
2021/06/30 00:42:05;;;;;;;4.38;3.38;;;;;;;;;;5019309;28;20187;-72
2021/06/30 00:44:33;;;;;;;4.63;3.92;;;;;;;;;;5027104;28;20215;-73
2021/06/30 00:46:59;;;;;;;5.03;3.78;;;;;;;;;;5021337;28;20281;-72
2021/06/30 00:49:24;;;;;;;8.95;4.88;;;;;;;;;;5027274;28;20277;-72
2021/06/30 00:51:49;;;;;;;6.88;3.88;;;;;;;;;;5018634;28;20182;-72
2021/06/30 00:54:14;;;;;;;5.05;4.35;;;;;;;;;;5023983;28;20273;-72
2021/06/30 00:56:40;;;;;;;6.70;4.15;;;;;;;;;;5023589;28;20210;-71
2021/06/30 00:59:05;;;;;;;5.63;4.50;;;;;;;;;;5019836;28;20171;-72
2021/06/30 01:01:31;;;;;;;6.63;4.38;;;;;;;;;;5029056;28;20715;-72
2021/06/30 01:03:56;;;;;;;6.80;4.50;;;;;;;;;;5023616;28;20738;-71
2021/06/30 01:06:21;;;;;;;5.75;4.53;;;;;;;;;;5016532;28;20183;-72
2021/06/30 01:08:47;;;;;;;8.45;5.00;;;;;;;;;;5022247;28;20721;-72
2021/06/30 01:11:13;;;;;;;5.97;4.97;;;;;;;;;;5018558;28;20266;-72
2021/06/30 01:13:40;;;;;;;5.22;4.63;;;;;;;;;;5011971;28;20207;-71
2021/06/30 01:16:06;;;;;;;6.55;4.93;;;;;;;;;;5020695;28;20700;-72
2021/06/30 01:18:31;;;;;;;5.13;4.63;;;;;;;;;;5016304;28;20198;-72
2021/06/30 01:20:57;;;;;;;6.18;5.20;;;;;;;;;;5020237;28;20174;-73
2021/06/30 01:23:22;;;;;;;5.22;4.65;;;;;;;;;;5027223;28;21007;-71
2021/06/30 01:25:48;;;;;;;7.28;5.03;;;;;;;;;;5027104;28;20663;-71
2021/06/30 01:28:14;;;;;;;7.85;4.65;;;;;;;;;;5021118;28;20849;-71
2021/06/30 01:30:40;;;;;;;5.68;4.85;;;;;;;;;;5031167;28;20719;-72
2021/06/30 01:33:05;;;;;;;6.40;4.72;;;;;;;;;;5027294;28;20262;-71
2021/06/30 01:35:31;;;;;;;7.05;6.25;;;;;;;;;;5023282;28;20200;-71
2021/06/30 01:37:56;;;;;;;6.35;4.78;;;;;;;;;;5020698;28;20254;-71
2021/06/30 01:40:21;;;;;;;8.07;6.18;;;;;;;;;;5025063;28;20273;-71
2021/06/30 01:42:48;;;;;;;7.43;6.25;;;;;;;;;;5022540;28;20245;-71
2021/06/30 01:45:14;;;;;;;6.13;5.32;;;;;;;;;;5030235;28;20194;-71
2021/06/30 01:47:39;;;;;;;6.63;5.57;;;;;;;;;;5022579;28;20276;-71
2021/06/30 01:50:05;;;;;;;8.07;5.82;;;;;;;;;;5028084;28;20193;-71
2021/06/30 01:52:31;;;;;;;7.35;5.65;;;;;;;;;;5025293;28;20177;-72
2021/06/30 01:54:56;;;;;;;5.32;4.82;;;;;;;;;;5025949;28;20194;-71
2021/06/30 01:57:21;;;;;;;7.53;5.70;;;;;;;;;;5020280;28;20233;-71
2021/06/30 01:59:46;;;;;;;6.00;5.47;;;;;;;;;;5028659;28;20205;-72
2021/06/30 02:02:12;;;;;;;7.25;6.40;;;;;;;;;;5026590;28;20187;-71
2021/06/30 02:04:38;;;;;;;6.38;5.35;;;;;;;;;;5028599;28;20248;-71
2021/06/30 02:07:03;;;;;;;6.55;5.20;;;;;;;;;;5027457;28;20577;-71
2021/06/30 02:09:28;;;;;;;6.70;5.10;;;;;;;;;;5023587;28;20196;-72
2021/06/30 02:11:53;;;;;;;5.32;4.70;;;;;;;;;;5023637;28;20537;-71
2021/06/30 02:14:18;;;;;;;5.15;4.72;;;;;;;;;;5018989;28;20190;-71
2021/06/30 02:16:44;;;;;;;6.35;4.88;;;;;;;;;;5024035;28;20182;-71
2021/06/30 02:19:11;;;;;;;6.70;4.72;;;;;;;;;;5016815;28;20272;-71
2021/06/30 02:21:36;;;;;;;10.02;5.68;;;;;;;;;;5029004;28;20663;-71
2021/06/30 02:24:02;;;;;;;7.82;5.00;;;;;;;;;;5030727;28;20206;-71
2021/06/30 02:26:28;;;;;;;5.28;4.60;;;;;;;;;;5028998;28;20210;-71
2021/06/30 02:28:53;;;;;;;6.13;5.07;;;;;;;;;;5013105;28;20174;-71
2021/06/30 02:31:19;;;;;;;6.80;4.30;;;;;;;;;;5029074;28;20671;-72
2021/06/30 02:33:44;;;;;;;5.53;5.00;;;;;;;;;;5023265;28;20207;-71
2021/06/30 02:36:10;;;;;;;6.18;4.97;;;;;;;;;;5026987;28;20179;-71
2021/06/30 02:38:35;;;;;;;7.97;5.50;;;;;;;;;;5015762;28;20269;-73
2021/06/30 02:41:00;;;;;;;5.85;5.10;;;;;;;;;;5022766;28;20221;-70
2021/06/30 02:43:25;;;;;;;6.93;6.22;;;;;;;;;;5023236;28;20232;-70
2021/06/30 02:45:50;;;;;;;10.02;6.55;;;;;;;;;;5027549;28;20210;-70
2021/06/30 02:48:16;;;;;;;9.35;6.38;;;;;;;;;;5017650;28;20584;-70
2021/06/30 02:50:41;;;;;;;6.95;5.72;;;;;;;;;;5025532;28;20237;-71
2021/06/30 02:53:06;;;;;;;8.50;6.13;;;;;;;;;;5026185;28;20170;-73
2021/06/30 02:55:31;;;;;;;7.97;6.70;;;;;;;;;;5024689;28;20195;-70
2021/06/30 02:57:56;;;;;;;9.32;6.35;;;;;;;;;;5028309;28;20181;-70
2021/06/30 03:00:24;;;;;;;8.15;6.25;;;;;;;;;;5028264;28;20186;-73
2021/06/30 03:02:50;;;;;;;9.32;6.70;;;;;;;;;;5019447;28;20178;-70
2021/06/30 03:05:15;;;;;;;9.75;7.47;;;;;;;;;;5028040;28;20277;-71
2021/06/30 03:07:40;;;;;;;8.52;6.65;;;;;;;;;;5019303;28;20214;-71
2021/06/30 03:10:07;;;;;;;9.57;7.35;;;;;;;;;;5027201;28;20174;-71
2021/06/30 03:12:32;;;;;;;8.23;6.72;;;;;;;;;;5029524;28;20171;-71
2021/06/30 03:14:58;;;;;;;9.65;6.55;;;;;;;;;;5024657;28;20213;-71
2021/06/30 03:17:23;;;;;;;7.70;5.70;;;;;;;;;;5025194;28;20316;-71
2021/06/30 03:19:48;;;;;;;6.85;6.03;;;;;;;;;;5019215;28;20182;-71
2021/06/30 03:22:13;;;;;;;6.60;5.88;;;;;;;;;;5030236;28;20213;-71
2021/06/30 03:24:38;;;;;;;7.35;6.25;;;;;;;;;;5032371;28;20580;-71
2021/06/30 03:27:03;;;;;;;10.73;6.05;;;;;;;;;;5031356;28;20226;-72
2021/06/30 03:29:29;;;;;;;10.00;6.50;;;;;;;;;;5021234;28;20640;-71
2021/06/30 03:31:54;;;;;;;6.90;5.57;;;;;;;;;;5027598;28;20186;-72
2021/06/30 03:34:20;;;;;;;6.88;5.32;;;;;;;;;;5030085;28;20224;-71
2021/06/30 03:36:45;;;;;;;6.45;5.28;;;;;;;;;;5022778;28;20656;-71
2021/06/30 03:39:10;;;;;;;6.07;5.47;;;;;;;;;;5025523;28;20189;-72
2021/06/30 03:41:35;;;;;;;8.65;5.63;;;;;;;;;;5027316;28;20196;-72
2021/06/30 03:44:00;;;;;;;7.75;5.45;;;;;;;;;;5017793;28;20272;-72
2021/06/30 03:46:26;;;;;;;9.15;6.22;;;;;;;;;;5019716;28;20185;-71
2021/06/30 03:48:51;;;;;;;6.00;5.13;;;;;;;;;;5028203;28;20206;-71
2021/06/30 03:51:16;;;;;;;7.45;5.15;;;;;;;;;;5031668;28;20186;-72
2021/06/30 03:53:41;;;;;;;8.55;5.32;;;;;;;;;;5034719;28;20205;-71
2021/06/30 03:56:06;;;;;;;5.68;5.13;;;;;;;;;;5032532;28;20213;-71
2021/06/30 03:58:32;;;;;;;6.22;5.03;;;;;;;;;;5027304;28;20198;-72
2021/06/30 04:00:57;;;;;;;7.07;4.65;;;;;;;;;;5032744;28;20166;-72
2021/06/30 04:03:23;;;;;;;6.45;4.60;;;;;;;;;;5026147;28;20527;-71
2021/06/30 04:05:48;;;;;;;6.20;4.85;;;;;;;;;;5027623;28;20179;-71
2021/06/30 04:08:13;;;;;;;4.85;4.32;;;;;;;;;;5029078;28;20291;-71
2021/06/30 04:10:39;;;;;;;6.80;4.95;;;;;;;;;;5030004;28;20182;-71
2021/06/30 04:13:04;;;;;;;6.10;4.72;;;;;;;;;;5032941;28;20183;-71
2021/06/30 04:15:30;;;;;;;7.03;5.82;;;;;;;;;;5030775;28;20198;-72
2021/06/30 04:17:58;;;;;;;6.90;6.30;;;;;;;;;;5031348;28;20187;-72
2021/06/30 04:20:23;;;;;;;6.47;5.85;;;;;;;;;;5032113;28;20178;-71
2021/06/30 04:22:48;;;;;;;7.88;5.90;;;;;;;;;;5031785;28;20190;-72
2021/06/30 04:25:13;;;;;;;7.93;6.55;;;;;;;;;;5027017;28;20209;-71
2021/06/30 04:27:38;;;;;;;7.30;6.47;;;;;;;;;;5030478;28;20691;-71
2021/06/30 04:30:06;;;;;;;7.93;6.70;;;;;;;;;;5031236;28;20647;-72
2021/06/30 04:32:32;;;;;;;9.18;6.72;;;;;;;;;;5045087;28;20208;-72
2021/06/30 04:34:57;;;;;;;8.07;6.82;;;;;;;;;;5051630;28;20194;-72
2021/06/30 04:37:22;;;;;;;7.68;6.38;;;;;;;;;;5042643;28;20182;-72
2021/06/30 04:39:47;;;;;;;9.15;6.15;;;;;;;;;;5040339;28;20193;-72
2021/06/30 04:42:12;;;;;;;9.00;7.05;;;;;;;;;;5053701;28;20202;-71
2021/06/30 04:44:38;;;;;;;11.05;7.43;;;;;;;;;;5046629;28;20212;-71
2021/06/30 04:47:03;;;;;;;9.57;7.40;;;;;;;;;;5041527;28;20201;-71
2021/06/30 04:49:29;;;;;;;9.60;7.90;;;;;;;;;;5044083;28;20182;-72
2021/06/30 04:51:54;;;;;;;11.55;8.85;;;;;;;;;;5030227;28;20175;-72
2021/06/30 04:54:21;;;;;;;9.60;7.68;;;;;;;;;;5050035;28;20198;-72
2021/06/30 04:56:47;;;;;;;10.95;8.57;;;;;;;;;;5037378;28;20324;-72
2021/06/30 04:59:12;;;;;;;9.85;8.43;;;;;;;;;;5023878;28;20175;-72
2021/06/30 05:01:37;;;;;;;9.35;7.82;;;;;;;;;;5028942;28;20565;-72
2021/06/30 05:04:03;;;;;;;11.50;9.40;;;;;;;;;;5020577;28;20202;-72
2021/06/30 05:06:28;;;;;;;15.73;9.90;;;;;;;;;;5029334;28;20178;-72
2021/06/30 05:08:53;;;;;;;11.88;9.55;;;;;;;;;;5016401;28;20214;-72
2021/06/30 05:11:19;;;;;;;12.43;10.18;;;;;;;;;;5022045;28;20704;-72
2021/06/30 05:13:44;;;;;;;12.55;8.93;;;;;;;;;;5023808;28;20531;-72
2021/06/30 05:16:09;;;;;;;10.82;8.35;;;;;;;;;;5028598;28;20178;-72
2021/06/30 05:18:34;;;;;;;12.05;10.13;;;;;;;;;;5028779;28;20194;-71
2021/06/30 05:21:00;;;;;;;12.52;8.55;;;;;;;;;;5025349;28;20179;-72
2021/06/30 05:23:25;;;;;;;10.15;8.20;;;;;;;;;;5012842;28;20237;-72
2021/06/30 05:25:50;;;;;;;11.73;8.48;;;;;;;;;;5027125;28;20178;-72
2021/06/30 05:28:15;;;;;;;12.55;7.88;;;;;;;;;;5030683;28;20727;-71
2021/06/30 05:30:40;;;;;;;11.00;8.35;;;;;;;;;;5023794;28;20174;-72
2021/06/30 05:33:06;;;;;;;10.38;7.97;;;;;;;;;;5025194;28;20186;-72
2021/06/30 05:35:31;;;;;;;10.95;8.27;;;;;;;;;;5021702;28;20266;-72
2021/06/30 05:37:56;;;;;;;13.00;9.05;;;;;;;;;;5025380;28;20170;-71
2021/06/30 05:40:22;;;;;;;10.85;7.63;;;;;;;;;;5023530;28;20191;-71
2021/06/30 05:42:47;;;;;;;11.27;8.23;;;;;;;;;;5028002;28;20201;-72
2021/06/30 05:45:16;;;;;;;9.30;8.05;;;;;;;;;;5028609;28;20768;-72
2021/06/30 05:47:45;;;;;;;10.15;8.07;;;;;;;;;;5027049;28;20310;-72
2021/06/30 05:50:14;;;;;;;10.45;8.13;;;;;;;;;;5025761;28;20189;-72
2021/06/30 05:52:39;;;;;;;11.68;8.52;;;;;;;;;;5025054;28;20166;-72
2021/06/30 05:55:05;;;;;;;13.50;8.43;;;;;;;;;;5028013;28;20244;-72
2021/06/30 05:57:31;;;;;;;11.40;8.43;;;;;;;;;;5029773;28;20615;-72
2021/06/30 05:59:56;;;;;;;12.98;8.80;;;;;;;;;;5027097;28;20178;-72
2021/06/30 06:02:21;;;;;;;11.95;9.10;;;;;;;;;;5029194;28;20244;-71
2021/06/30 06:04:46;;;;;;;11.13;9.10;;;;;;;;;;5025391;28;20236;-72
2021/06/30 06:07:11;;;;;;;11.82;8.60;;;;;;;;;;5025193;28;20297;-72
2021/06/30 06:09:36;;;;;;;10.02;8.82;;;;;;;;;;5017188;28;20649;-72
2021/06/30 06:12:02;;;;;;;13.05;9.52;;;;;;;;;;5030684;28;20194;-72
2021/06/30 06:14:27;;;;;;;10.90;9.80;;;;;;;;;;5020533;28;20584;-72
2021/06/30 06:16:53;;;;;;;16.55;10.45;;;;;;;;;;5019400;28;20175;-72
2021/06/30 06:19:20;;;;;;;12.60;10.00;;;;;;;;;;5020196;28;20736;-72
2021/06/30 06:21:45;;;;;;;13.00;9.48;;;;;;;;;;5020537;28;20187;-72
2021/06/30 06:24:10;;;;;;;11.77;8.43;;;;;;;;;;5015230;28;20202;-72
2021/06/30 06:26:35;;;;;;;10.50;8.65;;;;;;;;;;5026168;28;20193;-72
2021/06/30 06:29:01;;;;;;;11.77;9.75;;;;;;;;;;5023121;28;20240;-72
2021/06/30 06:31:28;;;;;;;10.93;9.55;;;;;;;;;;5021423;28;20174;-72
2021/06/30 06:33:53;;;;;;;13.20;9.73;;;;;;;;;;5026297;28;20194;-72
2021/06/30 06:36:19;;;;;;;11.20;8.93;;;;;;;;;;5019347;28;20178;-72
2021/06/30 06:38:45;;;;;;;12.25;9.48;;;;;;;;;;5026204;28;20675;-71
2021/06/30 06:41:10;;;;;;;15.02;9.68;;;;;;;;;;5024433;28;20170;-72
2021/06/30 06:43:36;;;;;;;11.68;9.73;;;;;;;;;;5026721;28;20182;-72
2021/06/30 06:46:01;;;;;;;15.15;9.57;;;;;;;;;;5022986;28;20182;-72
2021/06/30 06:48:26;;;;;;;10.07;8.70;;;;;;;;;;5020345;28;20201;-72
2021/06/30 06:50:52;;;;;;;11.70;8.95;;;;;;;;;;5015853;28;20186;-72
2021/06/30 06:53:17;;;;;;;12.65;8.77;;;;;;;;;;5020881;28;20660;-72
2021/06/30 06:55:42;;;;;;;12.45;8.75;;;;;;;;;;5025886;28;20237;-71
2021/06/30 06:58:08;;;;;;;13.25;9.45;;;;;;;;;;5027967;28;20182;-72
2021/06/30 07:00:33;;;;;;;10.40;9.32;;;;;;;;;;5022872;28;20179;-72
2021/06/30 07:02:59;;;;;;;12.75;9.38;;;;;;;;;;5024153;28;20585;-72
2021/06/30 07:05:24;;;;;;;13.90;10.48;;;;;;;;;;5030730;28;20331;-71
2021/06/30 07:07:49;;;;;;;11.63;9.27;;;;;;;;;;5031930;28;20210;-72
2021/06/30 07:10:14;;;;;;;15.27;9.40;;;;;;;;;;5025156;28;20224;-72
2021/06/30 07:12:39;;;;;;;10.43;8.73;;;;;;;;;;5025282;28;20308;-72
2021/06/30 07:15:06;;;;;;;9.80;8.32;;;;;;;;;;5026116;28;20197;-72
2021/06/30 07:17:33;;;;;;;9.77;8.77;;;;;;;;;;5025321;28;20229;-71
2021/06/30 07:19:58;;;;;;;11.02;9.25;;;;;;;;;;5027282;28;20197;-73
2021/06/30 07:22:23;;;;;;;11.90;8.65;;;;;;;;;;5020243;28;20614;-71
2021/06/30 07:24:49;;;;;;;10.70;8.65;;;;;;;;;;5017755;28;20198;-73
2021/06/30 07:27:14;;;;;;;11.83;9.03;;;;;;;;;;5015714;28;20982;-71
2021/06/30 07:29:39;;;;;;;15.10;9.15;;;;;;;;;;4998644;28;20455;-73
2021/06/30 07:32:04;;;;;;;12.05;8.50;;;;;;;;;;5014288;28;20190;-71
2021/06/30 07:34:30;;;;;;;10.98;9.88;;;;;;;;;;5014953;28;20933;-71
2021/06/30 07:36:55;;;;;;;12.27;9.15;;;;;;;;;;5013137;28;20667;-71
2021/06/30 07:39:23;;;;;;;12.50;8.63;;;;;;;;;;5020035;28;20240;-72
2021/06/30 07:41:49;;;;;;;12.13;9.10;;;;;;;;;;5012786;28;20285;-72
2021/06/30 07:44:14;;;;;;;13.43;9.60;;;;;;;;;;5014897;28;20204;-71
2021/06/30 07:46:39;;;;;;;10.95;9.85;;;;;;;;;;5013502;28;20340;-72
2021/06/30 07:49:04;;;;;;;11.35;9.38;;;;;;;;;;5013244;28;20206;-73
2021/06/30 07:51:29;;;;;;;9.65;8.60;;;;;;;;;;5014001;28;20263;-74
2021/06/30 07:53:54;;;;;;;12.70;9.75;;;;;;;;;;5018740;28;20580;-72
2021/06/30 07:56:33;;;;;;;10.32;8.70;;;;;;;;;;5014825;28;20194;-71
2021/06/30 07:58:59;;;;;;;11.32;9.00;;;;;;;;;;5017821;28;20534;-71
2021/06/30 08:01:24;;;;;;;10.65;8.85;;;;;;;;;;5014855;28;20269;-71
2021/06/30 08:03:49;;;;;;;10.60;8.15;;;;;;;;;;5014085;28;20621;-71
2021/06/30 08:06:15;;;;;;;10.50;8.67;;;;;;;;;;5011359;28;20190;-71
2021/06/30 08:08:40;;;;;;;11.10;8.90;;;;;;;;;;5014647;28;21122;-71
2021/06/30 08:11:05;;;;;;;9.88;8.88;;;;;;;;;;5012226;28;20229;-71
2021/06/30 08:13:30;;;;;;;13.13;9.18;;;;;;;;;;5015840;28;20183;-73
2021/06/30 08:15:55;;;;;;;14.10;9.57;;;;;;;;;;5018605;28;20598;-73
2021/06/30 08:18:20;;;;;;;12.90;9.18;;;;;;;;;;5029689;28;20191;-72
2021/06/30 08:20:50;;;;;;;10.73;9.07;;;;;;;;;;5010186;28;20220;-73
2021/06/30 08:23:16;;;;;;;13.20;9.85;;;;;;;;;;5013745;28;20202;-72
2021/06/30 08:25:44;;;;;;;10.98;8.75;;;;;;;;;;5010656;28;20194;-72
2021/06/30 08:28:10;;;;;;;12.18;9.32;;;;;;;;;;5015205;28;20202;-72
2021/06/30 08:30:35;;;;;;;10.90;9.77;;;;;;;;;;5007062;28;20632;-71
2021/06/30 08:33:00;;;;;;;10.60;9.48;;;;;;;;;;5013525;28;20186;-72
2021/06/30 08:35:25;;;;;;;13.37;9.37;;;;;;;;;;5012907;28;20194;-72
2021/06/30 08:37:54;;;;;;;12.65;9.18;;;;;;;;;;5014674;28;20497;-72
2021/06/30 08:40:19;;;;;;;13.52;9.75;;;;;;;;;;5019048;28;21666;-72
2021/06/30 08:42:45;;;;;;;14.57;10.55;;;;;;;;;;5015248;28;20209;-73
2021/06/30 08:45:11;;;;;;;18.73;11.55;;;;;;;;;;5012161;28;20695;-72
2021/06/30 08:47:38;;;;;;;15.13;10.77;;;;;;;;;;5013071;28;20237;-72
2021/06/30 08:50:05;;;;;;;11.68;10.00;;;;;;;;;;5014900;28;20175;-72
2021/06/30 08:52:31;;;;;;;12.48;9.55;;;;;;;;;;5012941;28;21291;-73
2021/06/30 08:54:57;;;;;;;14.63;10.35;;;;;;;;;;5014456;28;20195;-72
2021/06/30 08:57:23;;;;;;;17.52;10.52;;;;;;;;;;5020598;28;20193;-72
2021/06/30 08:59:48;;;;;;;11.27;9.00;;;;;;;;;;5021788;28;20178;-72
2021/06/30 09:02:13;;;;;;;14.38;9.57;;;;;;;;;;5013080;28;20189;-72
2021/06/30 09:04:42;;;;;;;15.05;9.60;;;;;;;;;;5014393;28;20198;-73
2021/06/30 09:07:08;;;;;;;10.25;7.50;;;;;;;;;;5013445;28;21223;-72
2021/06/30 09:09:37;;;;;;;12.93;7.78;;;;;;;;;;5016190;28;20178;-73
2021/06/30 09:12:02;;;;;;;13.10;8.63;;;;;;;;;;5010643;28;20206;-73
2021/06/30 09:14:32;;;;;;;12.35;8.35;;;;;;;;;;5013707;28;20198;-72
2021/06/30 09:17:19;;;;;;;10.32;7.90;;;;;;;;;;5012924;28;20186;-72
2021/06/30 09:19:45;;;;;;;10.15;7.80;;;;;;;;;;5017986;28;20759;-72
2021/06/30 09:22:10;;;;;;;11.93;8.93;;;;;;;;;;5026732;28;20274;-73
2021/06/30 09:24:38;;;;;;;9.80;7.93;;;;;;;;;;5031207;28;20244;-73
2021/06/30 09:27:04;;;;;;;13.20;7.47;;;;;;;;;;5031112;28;20297;-73
2021/06/30 09:29:29;;;;;;;9.15;8.23;;;;;;;;;;5029527;28;20205;-72
2021/06/30 09:31:54;;;;;;;10.25;7.70;;;;;;;;;;5026489;28;20197;-72
2021/06/30 09:34:21;;;;;;;10.90;8.23;;;;;;;;;;5032789;28;20202;-73
2021/06/30 09:36:58;;;;;;;11.25;9.13;;;;;;;;;;5030170;28;20388;-72
2021/06/30 09:39:24;;;;;;;12.73;9.07;;;;;;;;;;5020550;28;20182;-73
2021/06/30 09:41:49;;;;;;;11.38;7.93;;;;;;;;;;5019400;28;20198;-74
2021/06/30 09:44:21;;;;;;;11.77;9.10;;;;;;;;;;5012744;28;20718;-73
2021/06/30 09:46:48;;;;;;;14.13;9.57;;;;;;;;;;5013010;28;20266;-73
2021/06/30 09:49:15;;;;;;;11.27;7.70;;;;;;;;;;5011789;28;20257;-73
2021/06/30 09:51:41;;;;;;;9.10;7.30;;;;;;;;;;5009271;28;20197;-72
2021/06/30 09:54:07;;;;;;;8.52;6.82;;;;;;;;;;5013088;28;20982;-73
2021/06/30 09:56:36;;;;;;;9.88;6.35;;;;;;;;;;5009276;28;20188;-73
2021/06/30 09:59:14;;;;;;;8.52;6.53;;;;;;;;;;5015131;28;20229;-73
2021/06/30 10:01:40;;;;;;;9.82;6.88;;;;;;;;;;5012741;28;20195;-71
2021/06/30 10:04:05;;;;;;;12.00;7.13;;;;;;;;;;5014109;28;20209;-72
2021/06/30 10:06:32;;;;;;;8.00;7.20;;;;;;;;;;5016573;28;20193;-74
2021/06/30 10:08:58;;;;;;;7.55;6.72;;;;;;;;;;5015350;28;20294;-72
2021/06/30 10:11:24;;;;;;;6.72;6.03;;;;;;;;;;5009036;28;20174;-72
2021/06/30 10:13:49;;;;;;;8.35;6.22;;;;;;;;;;5011649;28;20248;-72
2021/06/30 10:16:17;;;;;;;8.18;6.13;;;;;;;;;;5012420;28;20186;-72
2021/06/30 10:18:42;;;;;;;7.93;6.45;;;;;;;;;;5010624;28;20671;-72
2021/06/30 10:21:09;;;;;;;8.05;6.55;;;;;;;;;;5010330;28;20186;-72
2021/06/30 10:23:34;;;;;;;8.20;6.43;;;;;;;;;;5013469;28;20175;-72
2021/06/30 10:25:59;;;;;;;6.57;5.97;;;;;;;;;;5014690;28;20221;-72
2021/06/30 10:28:27;;;;;;;9.43;7.28;;;;;;;;;;5011905;28;20317;-72
2021/06/30 10:30:52;;;;;;;8.45;7.05;;;;;;;;;;5009789;28;20222;-72
2021/06/30 10:33:34;;;;;;;9.63;6.15;;;;;;;;;;5011426;28;20667;-72
2021/06/30 10:36:00;;;;;;;9.70;6.55;;;;;;;;;;5010421;28;20182;-72
2021/06/30 10:38:44;;;;;;;7.90;5.75;;;;;;;;;;5016036;28;20182;-72
2021/06/30 10:41:28;;;;;;;6.07;5.18;;;;;;;;;;5011793;28;20278;-72
2021/06/30 10:44:15;;;;;;;6.53;5.10;;;;;;;;;;5011146;28;20289;-72
2021/06/30 10:46:41;;;;;;;8.52;5.30;;;;;;;;;;5022239;28;20182;-72
2021/06/30 10:49:18;;;;;;;6.63;5.13;;;;;;;;;;5010595;28;20218;-72
2021/06/30 10:51:45;;;;;;;8.30;5.60;;;;;;;;;;5009016;28;20589;-72
2021/06/30 10:54:29;;;;;;;9.57;6.03;;;;;;;;;;5011503;28;20193;-72
2021/06/30 10:57:12;;;;;;;8.98;5.68;;;;;;;;;;5011610;28;20197;-72
2021/06/30 10:59:56;;;;;;;6.05;5.47;;;;;;;;;;5010482;28;20185;-72
2021/06/30 11:02:21;;;;;;;8.13;5.93;;;;;;;;;;5011351;28;20178;-72
2021/06/30 11:04:46;;;;;;;7.93;5.63;;;;;;;;;;5008850;28;20202;-72
2021/06/30 11:07:31;;;;;;;7.20;4.77;;;;;;;;;;5011865;28;20210;-72
2021/06/30 11:09:57;;;;;;;7.97;5.00;;;;;;;;;;5019531;28;20430;-71
2021/06/30 11:12:42;;;;;;;5.47;4.80;;;;;;;;;;5010697;28;20174;-72
2021/06/30 11:15:08;;;;;;;4.93;4.35;;;;;;;;;;5012776;28;20211;-72
2021/06/30 11:17:34;;;;;;;7.38;4.85;;;;;;;;;;5010593;28;20186;-71
2021/06/30 11:19:59;;;;;;;7.07;4.80;;;;;;;;;;5011171;28;20269;-72
2021/06/30 11:22:25;;;;;;;7.90;5.35;;;;;;;;;;5012433;28;20182;-72
2021/06/30 11:24:50;;;;;;;5.35;4.93;;;;;;;;;;5013182;28;20194;-72
2021/06/30 11:27:23;;;;;;;5.03;4.38;;;;;;;;;;5013772;28;20197;-71
2021/06/30 11:29:57;;;;;;;6.45;5.20;;;;;;;;;;5010421;28;20186;-72
2021/06/30 11:32:46;;;;;;;6.65;5.95;;;;;;;;;;5009498;28;20277;-71
2021/06/30 11:35:20;;;;;;;7.53;5.47;;;;;;;;;;5003643;28;20218;-71
2021/06/30 11:37:46;;;;;;;7.60;5.20;;;;;;;;;;5014895;28;20185;-71
2021/06/30 11:40:19;;;;;;;5.53;4.85;;;;;;;;;;5016872;28;20190;-71
2021/06/30 11:42:48;;;;;;;6.88;4.88;;;;;;;;;;5019289;28;20206;-71
2021/06/30 11:45:19;;;;;;;5.82;4.90;;;;;;;;;;5016935;28;20202;-73
2021/06/30 11:47:46;;;;;;;5.63;4.82;;;;;;;;;;5012857;28;20225;-72
2021/06/30 11:50:17;;;;;;;6.60;4.82;;;;;;;;;;5013089;28;20316;-72
2021/06/30 11:52:42;;;;;;;7.70;4.68;;;;;;;;;;5013162;28;20232;-72
2021/06/30 11:55:08;;;;;;;7.25;5.60;;;;;;;;;;5014256;28;20298;-72
2021/06/30 11:57:34;;;;;;;7.25;5.00;;;;;;;;;;5012587;28;20729;-72
2021/06/30 12:00:06;;;;;;;6.22;4.70;;;;;;;;;;5014541;28;20348;-72
2021/06/30 12:03:03;;;;;;;5.55;4.93;;;;;;;;;;5017136;28;20218;-72
2021/06/30 12:05:30;;;;;;;8.20;4.78;;;;;;;;;;5013484;28;20214;-72
2021/06/30 12:07:56;;;;;;;8.93;5.35;;;;;;;;;;5014285;28;20761;-72
2021/06/30 12:10:22;;;;;;;6.05;4.80;;;;;;;;;;5017529;28;20194;-74
2021/06/30 12:12:49;;;;;;;7.30;5.68;;;;;;;;;;5016308;28;20305;-72
2021/06/30 12:15:15;;;;;;;9.45;6.28;;;;;;;;;;5017930;28;20197;-71
2021/06/30 12:17:46;;;;;;;6.07;5.47;;;;;;;;;;5030962;28;20182;-71
2021/06/30 12:20:12;;;;;;;8.43;6.22;;;;;;;;;;5030574;28;20210;-71
2021/06/30 12:22:38;;;;;;;7.75;6.10;;;;;;;;;;5015204;28;20206;-71
2021/06/30 12:25:03;;;;;;;10.02;6.68;;;;;;;;;;5014865;28;22119;-72
2021/06/30 12:27:42;;;;;;;8.05;6.47;;;;;;;;;;5018362;28;20782;-71
2021/06/30 12:30:09;;;;;;;8.80;6.70;;;;;;;;;;5013951;28;20185;-71
2021/06/30 12:32:35;;;;;;;10.23;6.57;;;;;;;;;;5014345;28;20177;-73
2021/06/30 12:35:02;;;;;;;8.15;6.35;;;;;;;;;;5020141;28;20187;-71
2021/06/30 12:37:28;;;;;;;7.00;4.72;;;;;;;;;;5016613;28;20327;-71
2021/06/30 12:40:03;;;;;;;6.00;4.85;;;;;;;;;;5011636;28;20566;-71
2021/06/30 12:43:00;;;;;;;6.22;5.63;;;;;;;;;;5011238;28;20409;-71
2021/06/30 12:45:45;;;;;;;7.88;5.40;;;;;;;;;;5015681;28;20214;-71
2021/06/30 12:48:13;;;;;;;9.23;5.70;;;;;;;;;;5014011;28;20220;-71
2021/06/30 12:50:38;;;;;;;7.40;5.15;;;;;;;;;;5013933;28;20181;-71
2021/06/30 12:53:03;;;;;;;5.45;4.88;;;;;;;;;;5012513;28;20206;-71
2021/06/30 12:55:28;;;;;;;9.90;5.22;;;;;;;;;;5016644;28;20217;-71
2021/06/30 12:57:57;;;;;;;8.48;6.07;;;;;;;;;;5012997;28;20186;-71
2021/06/30 13:00:24;;;;;;;6.43;4.90;;;;;;;;;;5017930;28;20664;-71
2021/06/30 13:03:08;;;;;;;7.60;5.30;;;;;;;;;;5013809;28;20261;-71
2021/06/30 13:05:33;;;;;;;6.82;4.95;;;;;;;;;;5011990;28;20206;-71
2021/06/30 13:07:59;;;;;;;8.98;6.00;;;;;;;;;;5018920;28;20195;-72
2021/06/30 13:10:24;;;;;;;7.72;6.40;;;;;;;;;;5013719;28;20621;-71
2021/06/30 13:12:49;;;;;;;7.37;6.43;;;;;;;;;;5016371;28;20182;-71
2021/06/30 13:15:24;;;;;;;7.63;6.80;;;;;;;;;;5011314;28;20443;-71
2021/06/30 13:17:50;;;;;;;7.60;6.80;;;;;;;;;;5012113;28;20178;-71
2021/06/30 13:20:15;;;;;;;7.10;6.47;;;;;;;;;;5012673;28;20252;-71
2021/06/30 13:22:45;;;;;;;7.45;6.75;;;;;;;;;;5019896;28;20221;-71
2021/06/30 13:25:15;;;;;;;8.18;6.53;;;;;;;;;;5009492;28;20213;-71
2021/06/30 13:27:58;;;;;;;7.25;6.55;;;;;;;;;;5012865;28;20214;-71
2021/06/30 13:36:07;;;;;;;5.45;4.53;;;;;;;;;;5017377;28;20265;-71
2021/06/30 13:38:32;;;;;;;6.50;5.00;;;;;;;;;;5016612;28;20228;-71
2021/06/30 13:41:02;;;;;;;5.38;4.88;;;;;;;;;;5014007;28;20617;-71
2021/06/30 13:43:28;;;;;;;6.65;5.10;;;;;;;;;;5023488;28;20450;-71
2021/06/30 13:46:04;;;;;;;6.32;5.53;;;;;;;;;;5016246;28;20214;-71
2021/06/30 13:48:30;;;;;;;7.82;5.93;;;;;;;;;;5007547;28;20293;-72
2021/06/30 13:50:57;;;;;;;7.57;5.10;;;;;;;;;;5011931;28;20187;-72
2021/06/30 13:53:23;;;;;;;6.53;5.70;;;;;;;;;;5015124;28;20273;-72
2021/06/30 13:55:48;;;;;;;6.63;4.68;;;;;;;;;;5011622;28;20262;-71
2021/06/30 13:58:14;;;;;;;4.72;4.32;;;;;;;;;;5019358;28;20221;-72
2021/06/30 14:00:40;;;;;;;6.13;4.78;;;;;;;;;;5035993;28;20174;-71
2021/06/30 14:03:05;;;;;;;7.47;4.55;;;;;;;;;;5039436;28;20171;-71
2021/06/30 14:05:31;;;;;;;5.50;4.55;;;;;;;;;;5039921;28;20202;-71
2021/06/30 14:07:57;;;;;;;6.88;5.35;;;;;;;;;;5041487;28;20190;-70
2021/06/30 14:10:22;;;;;;;7.82;5.47;;;;;;;;;;5040260;28;20194;-71
2021/06/30 14:12:47;;;;;;;6.93;5.22;;;;;;;;;;5040907;28;20206;-71
2021/06/30 14:15:13;;;;;;;6.85;5.63;;;;;;;;;;5042543;28;20221;-71
2021/06/30 14:17:38;;;;;;;5.50;5.00;;;;;;;;;;5038134;28;20237;-71
2021/06/30 14:20:04;;;;;;;9.40;5.00;;;;;;;;;;5038844;28;20182;-70
2021/06/30 14:22:31;;;;;;;7.93;5.25;;;;;;;;;;5040214;28;20190;-71
2021/06/30 14:24:56;;;;;;;5.53;5.03;;;;;;;;;;5031567;28;20202;-71
2021/06/30 14:27:22;;;;;;;5.85;4.07;;;;;;;;;;5016079;28;20233;-70
2021/06/30 14:29:52;;;;;;;3.92;3.45;;;;;;;;;;5016520;28;20176;-70
2021/06/30 14:32:17;;;;;;;4.20;3.80;;;;;;;;;;5014788;28;20230;-72
2021/06/30 14:34:43;;;;;;;5.18;4.40;;;;;;;;;;5019601;28;20234;-73
2021/06/30 14:37:08;;;;;;;5.63;3.97;;;;;;;;;;5016104;28;20524;-71
2021/06/30 14:39:34;;;;;;;4.75;4.22;;;;;;;;;;5016510;28;20202;-70
2021/06/30 14:41:59;;;;;;;5.35;4.32;;;;;;;;;;5018156;28;20691;-73